Time;durP1;ratioP1;P1;durP2;ratioP2;P2;SDS_P1;SDS_P2;PMS_P1;PMS_P2;Temp;Humidity;BMP_temperature;BMP_pressure;BME280_temperature;BME280_humidity;BME280_pressure;Samples;Min_cycle;Max_cycle;Signal;HPM_P1;HPM_P2
2022/08/29 00:02:23;;;;;;;2.80;0.10;;;13.10;99.90;;;;;;5054368;28;20029;-76
2022/08/29 00:04:49;;;;;;;0.73;0.10;;;13.10;99.90;;;;;;5054786;28;20478;-74
2022/08/29 00:07:14;;;;;;;3.67;0.35;;;13.00;99.90;;;;;;5036958;28;20036;-74
2022/08/29 00:09:40;;;;;;;2.17;0.00;;;13.00;99.90;;;;;;5054937;28;20029;-74
2022/08/29 00:12:06;;;;;;;0.43;0.10;;;12.90;99.90;;;;;;5054724;28;20025;-74
2022/08/29 00:14:32;;;;;;;1.85;0.20;;;12.90;99.90;;;;;;5054948;28;20021;-74
2022/08/29 00:16:59;;;;;;;0.85;0.00;;;12.90;99.90;;;;;;5054738;28;20029;-74
2022/08/29 00:19:25;;;;;;;4.55;0.10;;;12.90;99.90;;;;;;5036840;28;20115;-74
2022/08/29 00:21:52;;;;;;;3.13;0.00;;;12.80;99.90;;;;;;5054488;28;20054;-74
2022/08/29 00:24:17;;;;;;;1.52;0.15;;;12.80;99.90;;;;;;5054407;28;20020;-74
2022/08/29 00:26:43;;;;;;;1.92;0.10;;;12.80;99.90;;;;;;5055115;28;20024;-74
2022/08/29 00:29:08;;;;;;;1.20;0.00;;;12.80;99.90;;;;;;5036084;28;20013;-74
2022/08/29 00:31:34;;;;;;;3.10;0.40;;;12.80;99.90;;;;;;5054271;28;20029;-74
2022/08/29 00:33:59;;;;;;;0.28;0.00;;;12.70;99.90;;;;;;5036395;28;20013;-74
2022/08/29 00:36:25;;;;;;;3.08;0.17;;;12.70;99.90;;;;;;5054576;28;20043;-74
2022/08/29 00:38:51;;;;;;;1.40;0.35;;;12.70;99.90;;;;;;5054312;28;20049;-74
2022/08/29 00:41:17;;;;;;;2.65;0.10;;;12.70;99.90;;;;;;5054522;28;20027;-74
2022/08/29 00:43:42;;;;;;;0.30;0.10;;;12.60;99.90;;;;;;5054346;28;20024;-74
2022/08/29 00:46:41;;;;;;;1.80;0.30;;;12.90;99.90;;;;;;5036245;28;20021;-74
2022/08/29 00:49:38;;;;;;;0.65;0.08;;;12.50;99.90;;;;;;5054204;28;20037;-74
2022/08/29 00:52:12;;;;;;;0.30;0.10;;;12.50;99.90;;;;;;5054077;28;20116;-74
2022/08/29 00:54:39;;;;;;;0.68;0.13;;;12.60;99.90;;;;;;5036058;28;20546;-74
2022/08/29 00:57:05;;;;;;;3.20;0.00;;;12.60;99.90;;;;;;5054225;28;20021;-74
2022/08/29 00:59:35;;;;;;;0.20;0.10;;;12.60;99.90;;;;;;5053855;28;20541;-74
2022/08/29 01:02:03;;;;;;;1.60;0.10;;;12.70;99.90;;;;;;5054674;28;20051;-74
2022/08/29 01:04:29;;;;;;;6.15;0.38;;;12.70;99.90;;;;;;5035781;28;20017;-74
2022/08/29 01:06:56;;;;;;;1.77;0.00;;;12.70;99.90;;;;;;5053819;28;20060;-74
2022/08/29 01:09:24;;;;;;;2.28;0.00;;;12.70;99.90;;;;;;5053886;28;20025;-74
2022/08/29 01:14:35;;;;;;;3.45;0.25;;;12.70;99.90;;;;;;5053090;28;20520;-74
2022/08/29 01:17:03;;;;;;;1.75;0.10;;;12.70;99.90;;;;;;5053536;28;20070;-74
2022/08/29 01:20:01;;;;;;;1.25;0.20;;;12.70;99.90;;;;;;5053643;28;20023;-74
2022/08/29 01:22:46;;;;;;;2.35;0.32;;;12.80;99.90;;;;;;5053754;28;20466;-74
2022/08/29 01:25:15;;;;;;;1.85;0.00;;;12.80;99.90;;;;;;5053491;28;20095;-74
2022/08/29 01:27:42;;;;;;;;;;;12.90;99.90;;;;;;5053885;28;20105;-74
2022/08/29 01:30:09;;;;;;;2.80;0.00;;;12.90;99.90;;;;;;5035302;28;19908;-74
2022/08/29 01:32:35;;;;;;;4.50;0.10;;;12.90;99.90;;;;;;5053268;28;20057;-74
2022/08/29 01:35:00;;;;;;;1.52;0.50;;;13.00;99.90;;;;;;5053257;28;20025;-74
2022/08/29 01:37:30;;;;;;;5.55;0.47;;;12.90;99.90;;;;;;5053344;28;20028;-74
2022/08/29 01:39:56;;;;;;;3.30;0.85;;;12.90;99.90;;;;;;5053480;28;20382;-74
2022/08/29 01:42:23;;;;;;;1.00;0.00;;;12.90;99.90;;;;;;5053460;28;20025;-74
2022/08/29 01:44:52;;;;;;;1.00;0.22;;;12.90;99.90;;;;;;5053220;28;20060;-76
2022/08/29 01:47:18;;;;;;;3.80;0.13;;;13.00;99.90;;;;;;5053074;28;20065;-76
2022/08/29 01:49:45;;;;;;;2.50;0.10;;;13.00;99.90;;;;;;5055019;22;20050;-74
2022/08/29 01:52:11;;;;;;;0.57;0.17;;;13.00;99.90;;;;;;5015566;28;20486;-74
2022/08/29 01:54:42;;;;;;;1.75;0.10;;;13.00;99.90;;;;;;5033241;28;20474;-74
2022/08/29 01:57:09;;;;;;;1.55;0.10;;;13.00;99.90;;;;;;5033384;28;20359;-74
2022/08/29 01:59:35;;;;;;;3.03;0.10;;;13.10;99.90;;;;;;5033349;28;20022;-74
2022/08/29 02:02:22;;;;;;;0.63;0.00;;;13.10;99.90;;;;;;5033187;28;20021;-74
2022/08/29 02:04:48;;;;;;;1.75;0.13;;;13.00;99.90;;;;;;5033095;28;20032;-75
2022/08/29 02:07:16;;;;;;;1.98;0.20;;;13.00;99.90;;;;;;5033151;28;20093;-74
2022/08/29 02:09:42;;;;;;;2.35;0.25;;;13.00;99.90;;;;;;5033163;28;20025;-74
2022/08/29 02:12:09;;;;;;;1.52;0.30;;;12.90;99.90;;;;;;5015512;28;20117;-74
2022/08/29 02:14:34;;;;;;;1.13;0.10;;;12.80;99.90;;;;;;5033020;28;20028;-74
2022/08/29 02:17:04;;;;;;;3.15;0.00;;;12.80;99.90;;;;;;5033107;28;20475;-74
2022/08/29 02:19:31;;;;;;;0.95;0.35;;;12.70;99.90;;;;;;5015528;28;20437;-74
2022/08/29 02:21:57;;;;;;;2.33;0.20;;;12.60;99.90;;;;;;5033036;28;20018;-74
2022/08/29 02:24:23;;;;;;;1.83;0.03;;;12.60;99.90;;;;;;5033265;28;20080;-74
2022/08/29 02:26:49;;;;;;;0.75;0.32;;;12.50;99.90;;;;;;5036284;28;20021;-74
2022/08/29 02:29:14;;;;;;;1.83;0.05;;;12.50;99.90;;;;;;5037145;28;20029;-74
2022/08/29 02:31:41;;;;;;;1.20;0.15;;;12.50;99.90;;;;;;5036727;28;20037;-74
2022/08/29 02:34:07;;;;;;;2.55;0.22;;;12.40;99.90;;;;;;5036888;28;20063;-74
2022/08/29 02:36:34;;;;;;;0.45;0.10;;;12.30;99.90;;;;;;5019126;28;20022;-74
2022/08/29 02:39:00;;;;;;;1.90;0.00;;;12.30;99.90;;;;;;5036970;28;20028;-74
2022/08/29 02:41:26;;;;;;;1.75;0.30;;;12.20;99.90;;;;;;5036720;28;20449;-74
2022/08/29 02:43:51;;;;;;;2.92;0.10;;;12.20;99.90;;;;;;5036538;28;20030;-74
2022/08/29 02:46:18;;;;;;;3.55;0.05;;;12.20;99.90;;;;;;5036545;28;20053;-74
2022/08/29 02:48:45;;;;;;;0.68;0.20;;;12.20;99.90;;;;;;5018657;28;20044;-74
2022/08/29 02:51:22;;;;;;;0.22;0.10;;;12.20;99.90;;;;;;5036354;28;20022;-74
2022/08/29 02:53:48;;;;;;;0.52;0.00;;;12.20;99.90;;;;;;5036404;28;20036;-74
2022/08/29 02:56:15;;;;;;;1.25;0.20;;;12.20;99.90;;;;;;5018654;28;20029;-74
2022/08/29 02:58:41;;;;;;;0.70;0.10;;;12.20;99.90;;;;;;5036239;28;20386;-74
2022/08/29 03:01:07;;;;;;;1.15;0.13;;;12.30;99.90;;;;;;5036614;28;20026;-74
2022/08/29 03:03:34;;;;;;;4.93;0.30;;;12.30;99.90;;;;;;5036148;28;20037;-74
2022/08/29 03:05:59;;;;;;;1.40;0.40;;;12.30;99.90;;;;;;5018534;28;20033;-74
2022/08/29 03:08:25;;;;;;;2.92;0.00;;;12.40;99.90;;;;;;5018463;28;20017;-74
2022/08/29 03:10:51;;;;;;;1.65;0.00;;;12.40;99.90;;;;;;5035859;28;20021;-74
2022/08/29 03:13:17;;;;;;;2.70;0.10;;;12.40;99.90;;;;;;5036036;28;20017;-74
2022/08/29 03:15:43;;;;;;;1.02;0.10;;;12.50;99.90;;;;;;5035822;28;20024;-74
2022/08/29 03:18:08;;;;;;;1.00;0.10;;;12.50;99.90;;;;;;5018050;28;20026;-74
2022/08/29 03:20:36;;;;;;;1.30;0.15;;;12.50;99.90;;;;;;5035970;28;20025;-74
2022/08/29 03:23:03;;;;;;;6.45;0.30;;;12.70;99.90;;;;;;5017949;28;20457;-74
2022/08/29 03:25:29;;;;;;;1.73;0.30;;;12.60;99.90;;;;;;5035795;28;20030;-74
2022/08/29 03:27:54;;;;;;;0.63;0.00;;;12.70;99.90;;;;;;5018042;28;20036;-74
2022/08/29 03:30:21;;;;;;;0.77;0.00;;;12.70;99.90;;;;;;5017895;28;20027;-75
2022/08/29 03:32:47;;;;;;;1.38;0.22;;;12.80;99.90;;;;;;5017706;28;20389;-74
2022/08/29 03:35:13;;;;;;;0.77;0.00;;;12.90;99.90;;;;;;5035925;28;20022;-74
2022/08/29 03:37:40;;;;;;;1.20;0.00;;;12.90;99.90;;;;;;5035024;28;20032;-75
2022/08/29 03:40:07;;;;;;;1.13;0.10;;;13.00;99.90;;;;;;5017839;28;20028;-75
2022/08/29 03:42:33;;;;;;;0.88;0.00;;;13.00;99.90;;;;;;5017709;28;20060;-75
2022/08/29 03:45:03;;;;;;;1.17;0.10;;;13.70;99.90;;;;;;5017712;28;20022;-75
2022/08/29 03:47:29;;;;;;;0.70;0.00;;;13.10;99.90;;;;;;5035396;28;20029;-75
2022/08/29 03:49:54;;;;;;;10.68;0.55;;;13.10;99.90;;;;;;5017419;28;20116;-75
2022/08/29 03:52:20;;;;;;;6.78;0.52;;;13.20;99.90;;;;;;5017675;28;20475;-74
2022/08/29 03:54:46;;;;;;;0.60;0.20;;;13.20;99.90;;;;;;5035251;28;20025;-74
2022/08/29 03:57:11;;;;;;;2.25;0.00;;;13.20;99.90;;;;;;5017560;28;20020;-74
2022/08/29 03:59:37;;;;;;;1.85;0.10;;;13.20;99.90;;;;;;5035143;28;20061;-74
2022/08/29 04:02:03;;;;;;;0.85;0.10;;;13.30;99.90;;;;;;5035734;28;20394;-74
2022/08/29 04:07:13;;;;;;;1.02;0.00;;;13.40;99.90;;;;;;5035507;28;20509;-75
2022/08/29 04:09:39;;;;;;;0.90;0.00;;;13.40;99.90;;;;;;5034888;28;20028;-75
2022/08/29 04:12:10;;;;;;;0.20;0.00;;;13.40;99.90;;;;;;5035187;28;20029;-74
2022/08/29 04:14:39;;;;;;;2.05;0.22;;;13.50;99.90;;;;;;5017077;28;20017;-74
2022/08/29 04:17:07;;;;;;;0.15;0.00;;;13.50;99.90;;;;;;5034876;28;20018;-75
2022/08/29 04:19:34;;;;;;;0.52;0.00;;;13.50;99.90;;;;;;5034762;28;20017;-75
2022/08/29 04:22:00;;;;;;;0.70;0.08;;;13.50;99.90;;;;;;5034576;28;20049;-75
2022/08/29 04:24:25;;;;;;;2.63;0.10;;;13.50;99.90;;;;;;5035055;28;20048;-75
2022/08/29 04:26:51;;;;;;;1.02;0.00;;;13.50;99.90;;;;;;5034570;28;20026;-75
2022/08/29 04:29:17;;;;;;;2.75;0.00;;;13.60;99.90;;;;;;5034556;28;20482;-75
2022/08/29 04:31:43;;;;;;;1.17;0.00;;;13.60;99.90;;;;;;5034420;28;20022;-74
2022/08/29 04:34:11;;;;;;;5.90;0.20;;;13.60;99.90;;;;;;5034305;28;20220;-74
2022/08/29 04:36:40;;;;;;;3.50;0.40;;;13.70;99.90;;;;;;5034652;28;20104;-74
2022/08/29 04:39:05;;;;;;;;;;;13.60;99.90;;;;;;5034679;28;20021;-74
2022/08/29 04:41:31;;;;;;;0.80;0.10;;;13.60;99.90;;;;;;5034369;28;19912;-74
2022/08/29 04:43:56;;;;;;;3.28;0.47;;;13.70;99.90;;;;;;5016435;28;20021;-74
2022/08/29 04:46:22;;;;;;;2.95;0.10;;;13.70;99.90;;;;;;5016531;28;20103;-75
2022/08/29 04:48:48;;;;;;;0.95;0.00;;;13.70;99.90;;;;;;5016164;28;20049;-75
2022/08/29 04:51:13;;;;;;;3.03;0.13;;;13.70;99.90;;;;;;5034356;28;20044;-75
2022/08/29 04:53:40;;;;;;;0.77;0.00;;;13.70;99.90;;;;;;5034577;28;20025;-75
2022/08/29 04:56:11;;;;;;;2.15;0.00;;;13.70;99.90;;;;;;5034060;28;20474;-75
2022/08/29 04:58:38;;;;;;;0.30;0.00;;;13.80;99.90;;;;;;5016256;28;20497;-74
2022/08/29 05:01:04;;;;;;;3.35;0.28;;;13.80;99.90;;;;;;5034137;28;20425;-74
2022/08/29 05:03:31;;;;;;;1.92;0.25;;;13.80;99.90;;;;;;5033882;28;20025;-74
2022/08/29 05:06:07;;;;;;;0.90;0.00;;;13.70;99.90;;;;;;5033818;28;20036;-74
2022/08/29 05:08:38;;;;;;;6.43;0.22;;;13.80;99.90;;;;;;5017308;28;20394;-74
2022/08/29 05:11:07;;;;;;;1.13;0.10;;;14.30;99.90;;;;;;5033744;28;20036;-74
2022/08/29 05:13:33;;;;;;;1.95;0.25;;;13.80;99.90;;;;;;5033692;28;20124;-75
2022/08/29 05:16:03;;;;;;;2.42;0.13;;;13.70;99.90;;;;;;5033913;28;20025;-74
2022/08/29 05:18:29;;;;;;;2.30;0.20;;;13.80;99.90;;;;;;5033579;28;20021;-75
2022/08/29 05:20:54;;;;;;;2.65;0.35;;;13.80;99.90;;;;;;5016042;28;20013;-74
2022/08/29 05:23:20;;;;;;;2.58;0.00;;;13.80;99.90;;;;;;5033733;28;20017;-74
2022/08/29 05:25:54;;;;;;;3.60;0.00;;;13.90;99.90;;;;;;5033634;28;20107;-75
2022/08/29 05:28:20;;;;;;;1.17;0.00;;;13.90;99.90;;;;;;5033661;28;20100;-75
2022/08/29 05:30:45;;;;;;;1.17;0.20;;;13.90;99.90;;;;;;5033485;28;20108;-75
2022/08/29 05:33:11;;;;;;;4.13;0.17;;;14.00;99.90;;;;;;5033678;28;20067;-76
2022/08/29 05:35:37;;;;;;;3.42;0.35;;;14.90;99.90;;;;;;5033729;28;20095;-75
2022/08/29 05:38:03;;;;;;;0.88;0.05;;;14.80;99.90;;;;;;5015735;28;20076;-74
2022/08/29 05:40:28;;;;;;;1.58;0.17;;;14.10;99.90;;;;;;5015721;28;20021;-75
2022/08/29 05:42:54;;;;;;;2.03;0.20;;;14.20;99.90;;;;;;5033337;28;20034;-75
2022/08/29 05:45:20;;;;;;;5.28;0.88;;;14.20;99.90;;;;;;5015716;28;20359;-75
2022/08/29 05:47:45;;;;;;;5.28;0.73;;;14.30;99.90;;;;;;5015687;28;20026;-74
2022/08/29 05:50:12;;;;;;;4.00;0.52;;;14.40;99.90;;;;;;5033855;28;20032;-75
2022/08/29 05:52:41;;;;;;;4.75;0.22;;;14.50;99.90;;;;;;5033606;28;20029;-75
2022/08/29 05:55:06;;;;;;;;;;;14.60;99.90;;;;;;5033456;28;20063;-75
2022/08/29 05:57:32;;;;;;;4.15;0.50;;;14.70;99.90;;;;;;5033634;28;19984;-75
2022/08/29 05:59:58;;;;;;;0.95;0.10;;;14.90;99.90;;;;;;5033224;28;20018;-74
2022/08/29 06:02:24;;;;;;;1.02;0.25;;;14.90;99.90;;;;;;5037507;28;20029;-74
2022/08/29 06:04:49;;;;;;;1.77;0.05;;;15.10;99.90;;;;;;5037996;28;20017;-77
2022/08/29 06:07:15;;;;;;;2.28;0.35;;;15.00;99.90;;;;;;5037545;28;20030;-75
2022/08/29 06:09:42;;;;;;;1.65;0.60;;;15.10;99.90;;;;;;5037530;28;20021;-75
2022/08/29 06:12:10;;;;;;;4.07;0.45;;;15.20;99.90;;;;;;5037021;28;20079;-75
2022/08/29 06:14:37;;;;;;;3.78;0.30;;;15.20;99.90;;;;;;5019027;28;20045;-76
2022/08/29 06:17:04;;;;;;;11.82;0.82;;;15.30;99.90;;;;;;5036931;28;20022;-75
2022/08/29 06:19:33;;;;;;;1.30;0.30;;;15.40;99.90;;;;;;5037111;28;20022;-75
2022/08/29 06:22:02;;;;;;;1.88;0.03;;;15.40;99.90;;;;;;5019120;28;20021;-75
2022/08/29 06:24:29;;;;;;;0.98;0.20;;;15.50;99.90;;;;;;5036977;28;20471;-75
2022/08/29 06:26:55;;;;;;;2.40;0.10;;;15.50;99.90;;;;;;5037396;28;20030;-75
2022/08/29 06:29:20;;;;;;;4.55;0.52;;;15.60;99.90;;;;;;5036825;28;20470;-75
2022/08/29 06:31:47;;;;;;;3.40;0.30;;;15.60;99.90;;;;;;5036799;28;20030;-75
2022/08/29 06:34:13;;;;;;;1.88;0.13;;;15.70;99.90;;;;;;5036609;28;20025;-75
2022/08/29 06:36:38;;;;;;;0.52;0.13;;;15.70;99.90;;;;;;5036584;28;20471;-75
2022/08/29 06:39:07;;;;;;;1.85;0.30;;;15.80;99.90;;;;;;5019138;28;20022;-75
2022/08/29 06:41:34;;;;;;;3.50;0.20;;;15.80;99.90;;;;;;5019186;28;20025;-76
2022/08/29 06:44:00;;;;;;;2.05;0.30;;;15.90;99.90;;;;;;5036485;28;20033;-75
2022/08/29 06:46:27;;;;;;;6.90;0.10;;;16.10;99.90;;;;;;5036686;28;20479;-75
2022/08/29 06:48:55;;;;;;;1.33;0.03;;;16.30;99.90;;;;;;5036219;28;20044;-75
2022/08/29 06:51:21;;;;;;;5.97;0.47;;;16.60;99.90;;;;;;5018651;28;20422;-75
2022/08/29 06:53:47;;;;;;;0.93;0.10;;;16.80;99.90;;;;;;5018741;28;20030;-75
2022/08/29 06:56:13;;;;;;;6.20;0.40;;;17.10;99.90;;;;;;5036288;28;20491;-75
2022/08/29 06:58:39;;;;;;;6.55;0.90;;;17.10;99.90;;;;;;5036268;28;20017;-75
2022/08/29 07:01:11;;;;;;;2.95;0.35;;;17.20;99.90;;;;;;5036203;28;20116;-75
2022/08/29 07:03:36;;;;;;;3.53;0.30;;;17.30;99.90;;;;;;5036093;28;20398;-75
2022/08/29 07:06:02;;;;;;;6.25;0.63;;;17.40;99.90;;;;;;5036414;28;20018;-75
2022/08/29 07:08:28;;;;;;;4.18;0.43;;;17.40;99.90;;;;;;5036043;28;20060;-75
2022/08/29 07:10:54;;;;;;;1.15;0.10;;;17.40;99.90;;;;;;5018339;28;20454;-75
2022/08/29 07:13:19;;;;;;;2.92;0.15;;;17.50;99.90;;;;;;5016936;28;20013;-75
2022/08/29 07:15:45;;;;;;;3.03;0.43;;;17.50;99.90;;;;;;5036267;28;20017;-75
2022/08/29 07:18:11;;;;;;;2.58;0.10;;;17.60;99.90;;;;;;5035784;28;20040;-75
2022/08/29 07:20:38;;;;;;;3.40;0.30;;;17.40;99.90;;;;;;5036080;28;20025;-75
2022/08/29 07:23:05;;;;;;;1.43;0.13;;;17.40;99.90;;;;;;5036349;28;20065;-75
2022/08/29 07:25:30;;;;;;;2.65;0.25;;;17.40;99.90;;;;;;5035863;28;20025;-75
2022/08/29 07:27:56;;;;;;;6.18;0.90;;;17.40;99.90;;;;;;5036343;28;20036;-75
2022/08/29 07:30:22;;;;;;;1.42;0.20;;;17.40;99.90;;;;;;5035664;28;20049;-75
2022/08/29 07:32:47;;;;;;;3.58;0.20;;;17.50;99.90;;;;;;5017889;28;20029;-75
2022/08/29 07:35:13;;;;;;;2.58;0.30;;;17.50;99.90;;;;;;5035890;28;20013;-75
2022/08/29 07:37:39;;;;;;;2.10;0.17;;;17.70;99.90;;;;;;5035563;28;20047;-75
2022/08/29 07:40:07;;;;;;;4.68;0.50;;;17.70;99.90;;;;;;5017711;28;20124;-75
2022/08/29 07:42:34;;;;;;;2.65;0.10;;;17.80;99.90;;;;;;5035410;28;20029;-75
2022/08/29 07:44:59;;;;;;;1.35;0.20;;;17.90;99.90;;;;;;5017684;28;20030;-75
2022/08/29 07:47:25;;;;;;;1.92;0.35;;;18.00;99.90;;;;;;5035720;28;20028;-75
2022/08/29 07:49:51;;;;;;;2.42;0.40;;;18.10;99.90;;;;;;5035330;28;20025;-75
2022/08/29 07:52:18;;;;;;;1.70;0.22;;;18.10;99.90;;;;;;5017846;28;20028;-75
2022/08/29 07:54:43;;;;;;;2.92;0.77;;;18.20;99.90;;;;;;5017384;28;20018;-75
2022/08/29 07:57:09;;;;;;;2.65;0.30;;;18.10;99.90;;;;;;5035221;28;20363;-75
2022/08/29 07:59:34;;;;;;;5.90;0.30;;;18.20;99.90;;;;;;5035128;28;20026;-76
2022/08/29 08:02:00;;;;;;;2.10;0.30;;;18.20;99.90;;;;;;5035916;28;20036;-75
2022/08/29 08:04:26;;;;;;;5.45;0.60;;;18.40;99.90;;;;;;5035227;28;20422;-76
2022/08/29 08:06:51;;;;;;;1.38;0.20;;;18.40;99.90;;;;;;5035048;28;20026;-75
2022/08/29 08:09:17;;;;;;;5.25;0.65;;;18.50;99.90;;;;;;5035297;28;20033;-75
2022/08/29 08:11:43;;;;;;;2.60;0.20;;;18.60;99.90;;;;;;5034950;28;20053;-75
2022/08/29 08:14:09;;;;;;;4.00;0.45;;;18.80;99.90;;;;;;5035415;28;20025;-75
2022/08/29 08:16:35;;;;;;;2.85;0.20;;;18.90;99.90;;;;;;5035257;28;20033;-75
2022/08/29 08:19:01;;;;;;;1.73;0.43;;;19.20;99.90;;;;;;5034941;28;20395;-75
2022/08/29 08:21:27;;;;;;;2.35;0.47;;;19.40;99.90;;;;;;5034811;28;20104;-75
2022/08/29 08:23:53;;;;;;;1.05;0.10;;;20.00;99.90;;;;;;5034229;28;20057;-75
2022/08/29 08:26:18;;;;;;;2.90;0.30;;;19.80;99.90;;;;;;5034866;28;20025;-75
2022/08/29 08:28:44;;;;;;;3.45;0.43;;;19.90;99.90;;;;;;5035044;28;20116;-76
2022/08/29 08:31:12;;;;;;;1.98;0.00;;;19.80;99.90;;;;;;5034655;28;20032;-76
2022/08/29 08:33:38;;;;;;;4.90;0.20;;;20.00;99.90;;;;;;5034571;28;20025;-76
2022/08/29 08:36:15;;;;;;;1.40;0.20;;;20.00;99.90;;;;;;5016855;28;20053;-76
2022/08/29 08:38:41;;;;;;;1.63;0.52;;;20.10;99.90;;;;;;5034392;28;20049;-76
2022/08/29 08:41:21;;;;;;;2.95;0.32;;;20.00;99.90;;;;;;5034938;28;20022;-76
2022/08/29 08:43:52;;;;;;;3.92;0.25;;;20.00;99.90;;;;;;5018238;28;20033;-77
2022/08/29 08:46:27;;;;;;;1.58;0.20;;;20.10;99.90;;;;;;5018701;28;20026;-77
2022/08/29 08:48:55;;;;;;;3.17;0.20;;;20.20;99.90;;;;;;5021000;28;20029;-78
2022/08/29 08:51:26;;;;;;;3.92;0.10;;;20.30;99.90;;;;;;5019854;28;20044;-77
2022/08/29 08:53:56;;;;;;;2.75;0.30;;;20.40;99.90;;;;;;5037738;28;20026;-77
2022/08/29 08:56:33;;;;;;;3.00;0.32;;;20.30;99.90;;;;;;5016990;28;20021;-75
2022/08/29 08:59:31;;;;;;;2.50;0.47;;;20.20;99.90;;;;;;5016402;28;20431;-74
2022/08/29 09:02:20;;;;;;;1.60;0.00;;;20.20;99.90;;;;;;5013386;28;20041;-76
2022/08/29 09:05:11;;;;;;;5.28;0.30;;;20.30;99.90;;;;;;5034866;28;20033;-76
2022/08/29 09:08:05;;;;;;;2.03;0.10;;;20.30;99.90;;;;;;5034208;28;20021;-77
2022/08/29 09:10:44;;;;;;;5.53;0.20;;;20.30;99.90;;;;;;5005798;28;20168;-77
2022/08/29 09:13:17;;;;;;;1.25;0.30;;;20.30;99.90;;;;;;5033909;28;20390;-76
2022/08/29 09:15:46;;;;;;;1.10;0.10;;;20.30;99.90;;;;;;5033955;28;20144;-77
2022/08/29 09:18:32;;;;;;;3.85;0.45;;;20.30;99.90;;;;;;5016544;28;20087;-77
2022/08/29 09:20:58;;;;;;;1.52;0.40;;;20.20;99.90;;;;;;5021624;28;20026;-76
2022/08/29 09:23:58;;;;;;;1.90;0.20;;;20.40;99.90;;;;;;5033673;28;20040;-75
2022/08/29 09:26:26;;;;;;;2.50;0.10;;;20.60;99.90;;;;;;5033758;28;20026;-75
2022/08/29 09:28:52;;;;;;;2.25;0.10;;;20.80;99.90;;;;;;5033595;28;20542;-75
2022/08/29 09:31:21;;;;;;;3.67;0.10;;;21.10;99.90;;;;;;5033368;28;20033;-75
2022/08/29 09:33:59;;;;;;;3.85;0.32;;;21.30;99.90;;;;;;5033878;28;20048;-76
2022/08/29 09:36:39;;;;;;;0.93;0.20;;;21.50;99.90;;;;;;5015280;28;20021;-75
2022/08/29 09:39:29;;;;;;;1.15;0.00;;;21.80;99.90;;;;;;5033359;28;20025;-76
2022/08/29 09:42:12;;;;;;;3.03;0.63;;;21.80;99.90;;;;;;5033315;28;20112;-76
2022/08/29 09:44:40;;;;;;;3.40;0.32;;;21.80;99.20;;;;;;5033261;28;20025;-75
2022/08/29 09:47:10;;;;;;;2.78;0.00;;;21.70;99.50;;;;;;5015715;28;20029;-77
2022/08/29 09:49:38;;;;;;;2.00;0.25;;;21.60;99.90;;;;;;5033581;28;20055;-75
2022/08/29 09:52:14;;;;;;;1.00;0.32;;;21.70;99.10;;;;;;5033001;28;20033;-75
2022/08/29 09:54:40;;;;;;;2.70;0.30;;;21.70;99.90;;;;;;5032995;28;20026;-75
2022/08/29 09:57:32;;;;;;;3.25;0.20;;;21.80;99.40;;;;;;5033569;28;20033;-76
2022/08/29 10:00:10;;;;;;;2.10;0.10;;;21.90;98.80;;;;;;5012383;28;20044;-77
2022/08/29 10:02:44;;;;;;;1.13;0.10;;;22.00;99.20;;;;;;5033855;28;20108;-77
2022/08/29 10:05:28;;;;;;;3.17;0.30;;;22.00;98.20;;;;;;5033872;28;20304;-77
2022/08/29 10:07:54;;;;;;;1.55;0.00;;;21.90;98.60;;;;;;5033319;28;20033;-75
2022/08/29 10:10:25;;;;;;;1.92;0.35;;;21.90;97.60;;;;;;5015269;28;20402;-75
2022/08/29 10:13:16;;;;;;;2.83;0.28;;;22.10;98.00;;;;;;5033151;28;20346;-75
2022/08/29 10:16:20;;;;;;;3.25;0.30;;;22.40;97.40;;;;;;5015598;28;20467;-76
2022/08/29 10:18:48;;;;;;;1.85;0.55;;;22.80;97.00;;;;;;5018854;28;20041;-76
2022/08/29 10:21:30;;;;;;;1.73;0.27;;;23.10;95.50;;;;;;5015411;28;20079;-76
2022/08/29 10:24:14;;;;;;;4.13;0.10;;;23.30;95.40;;;;;;5033207;28;20026;-76
2022/08/29 10:27:01;;;;;;;4.15;0.63;;;23.50;95.80;;;;;;5033642;28;20064;-76
2022/08/29 10:29:35;;;;;;;7.15;0.93;;;23.40;94.50;;;;;;5015118;28;20490;-75
2022/08/29 10:32:13;;;;;;;7.47;0.65;;;23.30;95.20;;;;;;5033220;28;20471;-76
2022/08/29 10:35:05;;;;;;;1.70;0.30;;;23.30;93.40;;;;;;5015159;28;20056;-76
2022/08/29 10:38:03;;;;;;;1.90;0.25;;;23.30;94.60;;;;;;5015308;28;20032;-77
2022/08/29 10:40:41;;;;;;;1.50;0.28;;;23.50;94.50;;;;;;5015314;28;20136;-76
2022/08/29 10:43:22;;;;;;;0.13;0.00;;;23.60;92.20;;;;;;5033024;28;20489;-76
2022/08/29 10:46:27;;;;;;;0.88;0.10;;;23.60;92.50;;;;;;5033069;28;20803;-76
2022/08/29 10:49:05;;;;;;;23.88;3.30;;;23.40;91.50;;;;;;5036441;28;20433;-76
2022/08/29 10:51:45;;;;;;;28.23;4.97;;;23.20;92.40;;;;;;5036646;28;20029;-76
2022/08/29 10:54:29;;;;;;;3.28;0.20;;;23.00;93.60;;;;;;5018650;28;20256;-76
2022/08/29 10:56:56;;;;;;;2.30;0.38;;;22.80;93.80;;;;;;5036510;28;20391;-76
2022/08/29 10:59:33;;;;;;;2.00;0.00;;;22.40;93.90;;;;;;5018637;28;20018;-76
2022/08/29 11:02:07;;;;;;;4.30;0.63;;;22.00;95.50;;;;;;5036358;28;20033;-77
2022/08/29 11:04:50;;;;;;;1.08;0.10;;;21.70;95.90;;;;;;5018483;28;20036;-77
2022/08/29 11:07:41;;;;;;;1.38;0.32;;;21.40;96.90;;;;;;5018503;28;20124;-78
2022/08/29 11:10:25;;;;;;;2.38;0.22;;;21.40;97.20;;;;;;5036084;28;20022;-77
2022/08/29 11:12:57;;;;;;;3.20;0.00;;;21.30;97.70;;;;;;5018133;28;20204;-77
2022/08/29 11:15:32;;;;;;;2.38;0.22;;;21.50;98.70;;;;;;5018234;28;20537;-77
2022/08/29 11:18:39;;;;;;;2.78;0.13;;;21.60;97.70;;;;;;5018422;28;20025;-77
2022/08/29 11:21:15;;;;;;;2.20;0.10;;;21.80;98.00;;;;;;5009342;28;20084;-77
2022/08/29 11:23:46;;;;;;;4.88;0.10;;;21.90;97.50;;;;;;5018377;28;20068;-77
2022/08/29 11:26:11;;;;;;;2.95;0.00;;;22.10;97.30;;;;;;5018263;28;20079;-77
2022/08/29 11:28:48;;;;;;;4.72;0.32;;;22.10;96.60;;;;;;5018086;28;20501;-77
2022/08/29 11:31:33;;;;;;;1.15;0.13;;;22.30;97.30;;;;;;5018008;28;20032;-78
2022/08/29 11:34:17;;;;;;;5.20;0.43;;;22.50;96.90;;;;;;5035957;28;20111;-77
2022/08/29 11:37:13;;;;;;;2.60;0.43;;;22.70;95.90;;;;;;5035760;28;20030;-77
2022/08/29 11:39:55;;;;;;;1.92;0.30;;;22.80;95.40;;;;;;5035792;28;20112;-78
2022/08/29 11:42:26;;;;;;;1.35;0.10;;;23.10;93.00;;;;;;5035778;28;20069;-77
2022/08/29 11:44:54;;;;;;;3.45;0.05;;;23.50;93.00;;;;;;5017733;28;20021;-76
2022/08/29 11:47:45;;;;;;;1.33;0.20;;;23.70;91.70;;;;;;5035517;28;20101;-77
2022/08/29 11:50:20;;;;;;;1.77;0.10;;;23.90;92.00;;;;;;4998318;28;20041;-78
2022/08/29 11:52:56;;;;;;;0.73;0.08;;;23.90;91.40;;;;;;5035537;28;20377;-76
2022/08/29 11:55:34;;;;;;;2.97;0.10;;;24.00;91.50;;;;;;5036102;28;20026;-76
2022/08/29 11:58:04;;;;;;;1.00;0.00;;;23.90;91.10;;;;;;5016893;28;20116;-76
2022/08/29 12:00:35;;;;;;;0.85;0.00;;;23.80;91.70;;;;;;5035381;28;20021;-76
2022/08/29 12:03:01;;;;;;;1.98;0.05;;;23.70;92.40;;;;;;5017456;28;20033;-76
2022/08/29 12:05:51;;;;;;;1.67;0.00;;;23.60;91.90;;;;;;5035251;28;20057;-76
2022/08/29 12:08:30;;;;;;;1.08;0.10;;;23.80;92.80;;;;;;5035291;28;20072;-76
2022/08/29 12:10:56;;;;;;;2.28;0.10;;;24.30;92.50;;;;;;5035307;28;20026;-76
2022/08/29 12:13:47;;;;;;;2.40;0.15;;;24.70;91.00;;;;;;5035372;28;20025;-76
2022/08/29 12:16:22;;;;;;;1.55;0.10;;;24.70;88.60;;;;;;5034963;28;20483;-76
2022/08/29 12:18:53;;;;;;;0.95;0.30;;;24.60;88.90;;;;;;5017298;28;20394;-76
2022/08/29 12:21:43;;;;;;;1.30;0.00;;;24.30;87.60;;;;;;5035039;28;20025;-76
2022/08/29 12:24:31;;;;;;;0.85;0.40;;;24.30;88.80;;;;;;5017377;28;20116;-76
2022/08/29 12:26:57;;;;;;;2.28;0.10;;;24.00;88.60;;;;;;5034793;28;20021;-76
2022/08/29 12:29:43;;;;;;;0.63;0.10;;;24.00;90.50;;;;;;5034510;28;20036;-76
2022/08/29 12:32:40;;;;;;;1.48;0.10;;;23.90;90.20;;;;;;5034379;28;20371;-76
2022/08/29 12:35:12;;;;;;;2.08;0.22;;;23.80;90.90;;;;;;5035269;28;20505;-76
2022/08/29 12:38:03;;;;;;;1.77;0.03;;;23.80;90.50;;;;;;5016884;28;20394;-76
2022/08/29 12:40:37;;;;;;;3.13;0.45;;;23.80;91.00;;;;;;5034536;28;20068;-76
2022/08/29 12:43:29;;;;;;;0.43;0.20;;;23.70;90.80;;;;;;5034695;28;20060;-76
2022/08/29 12:45:55;;;;;;;2.45;0.00;;;23.50;91.80;;;;;;5034498;28;20031;-76
2022/08/29 12:48:30;;;;;;;0.52;0.10;;;23.50;92.40;;;;;;5034375;28;20124;-76
2022/08/29 12:50:56;;;;;;;1.10;0.30;;;23.30;92.10;;;;;;5034324;28;20454;-76
2022/08/29 12:53:25;;;;;;;1.95;0.03;;;23.20;91.40;;;;;;5034433;28;20013;-76
2022/08/29 12:56:30;;;;;;;1.02;0.10;;;22.90;91.40;;;;;;5016538;28;20489;-76
2022/08/29 12:59:02;;;;;;;2.35;0.00;;;22.90;91.60;;;;;;5016527;28;20132;-76
2022/08/29 13:01:30;;;;;;;3.20;0.10;;;22.90;92.30;;;;;;5034367;28;20025;-76
2022/08/29 13:04:14;;;;;;;3.80;0.43;;;23.00;93.10;;;;;;5034580;28;20041;-77
2022/08/29 13:07:06;;;;;;;0.35;0.00;;;23.50;92.10;;;;;;5018140;28;20120;-77
2022/08/29 13:09:43;;;;;;;1.90;0.00;;;24.50;92.90;;;;;;5016943;28;20037;-77
2022/08/29 13:12:11;;;;;;;3.90;0.50;;;25.40;90.40;;;;;;5034070;28;20044;-77
2022/08/29 13:14:56;;;;;;;1.45;0.00;;;26.10;87.30;;;;;;5016198;28;20502;-77